Portada
METAR-TAF:

METAR-TAF

Aeropuertos :

Aeropuerto Internacional de Taskent

Taskent, Uzbekistán

latitud: 41-16N, longitud: 069-16E, altitud: 489 m

Observación

El informe se hizo hace 1 hora y 5 minutos, a las 05:00 UTC
Viento 10 kt del norte-noroeste, variando entre oeste-noroeste y norte
Temperatura 26°C
Humedad 34%
Presión 1016 hPa
Visibilidad 10 km o más
sin nubes por debajo de 1500 m y sin presencia de cumulonimbus.

METAR: UTTT 210500Z 34010KT 290V010 CAVOK 26/09 Q1016 R08R/CLRD70 NOSIG

Hora: 11:05 (06:05 UTC)

Pronóstico

El informe se hizo hace 7 horas y 5 minutos, a las 23:00 UTC
Pronóstico válido del 21 a las 00 UTC al 21 a las 24 UTC
Viento 10 kt del norte
Visibilidad: 7000 m
Temporalmente
del 21 a las 00 UTC al 21 a las 06 UTC
Viento 15 kt del oeste-noroeste
Escasas nubes a una altura de 6000 ft, Cumulonimbus.
Nubes dispersas a una altura de 10000 ft

TAF: UTTT 202300Z 2100/2124 35010KT 7000 NSC TEMPO 2100/2106 30015KT FEW060CB SCT100

Observaciones y pronósticos meteorológicos de más de 4000 aeropuertos (mensajes METAR y TAF).

Los puntos amarillos y rojos representan las estaciones disponibles.

Ponga el ratón en el punto deseado para ver el nombre de la estación.

Haga clic para ver las observaciones y los pronósticos meteorológicos.

Para cambiar el mapa : haga clic en los botones verdes con una cruz de color negro para hacer un zoom, en el botón verde con un guión para alejar o en las flechas verdes para mapas adyacentes.


METAR-TAF: